Time;durP1;ratioP1;P1;durP2;ratioP2;P2;SDS_P1;SDS_P2;PMS_P1;PMS_P2;Temp;Humidity;BMP_temperature;BMP_pressure;BME280_temperature;BME280_humidity;BME280_pressure;Samples;Min_cycle;Max_cycle;Signal;HPM_P1;HPM_P2
2022/05/19 00:00:17;;;;;;;;;;;;;;;;;;1039990;28;3490;-55
2022/05/19 00:01:05;;;;;;;;;;;;;;;;;;1044273;28;3784;-54
2022/05/19 00:01:35;;;;;;;;;;;;;;;;;;1043697;28;4082;-56
2022/05/19 00:02:06;;;;;;;;;;;;;;;;;;1043879;28;3373;-55
2022/05/19 00:02:36;;;;;;;;;;;;;;;;;;1042051;28;3904;-54
2022/05/19 00:03:07;;;;;;;;;;;;;;;;;;1044088;28;4212;-56
2022/05/19 00:03:38;;;;;;;;;;;;;;;;;;1043928;28;3936;-55
2022/05/19 00:04:08;;;;;;;;;;;;;;;;;;1044491;28;3124;-55
2022/05/19 00:04:38;;;;;;;;;;;;;;;;;;1043062;28;4072;-54
2022/05/19 00:05:10;;;;;;;;;;;;;;;;;;1044502;28;3354;-55
2022/05/19 00:05:40;;;;;;;;;;;;;;;;;;1043848;28;4820;-53
2022/05/19 00:06:11;;;;;;;;;;;;;;;;;;1044607;28;3565;-55
2022/05/19 00:06:41;;;;;;;;;;;;;;;;;;1042242;28;3813;-55
2022/05/19 00:07:12;;;;;;;;;;;;;;;;;;1044326;28;4061;-55
2022/05/19 00:07:42;;;;;;;;;;;;;;;;;;1044317;28;4057;-56
2022/05/19 00:08:13;;;;;;;;;;;;;;;;;;1043998;28;3431;-54
2022/05/19 00:08:43;;;;;;;;;;;;;;;;;;1042464;28;3825;-55
2022/05/19 00:09:14;;;;;;;;;;;;;;;;;;1043443;28;3207;-53
2022/05/19 00:09:44;;;;;;;;;;;;;;;;;;1043215;28;4091;-55
2022/05/19 00:10:14;;;;;;;;;;;;;;;;;;1044297;28;3928;-53
2022/05/19 00:10:45;;;;;;;;;;;;;;;;;;1042939;28;5241;-56
2022/05/19 00:11:16;;;;;;;;;;;;;;;;;;1043605;28;3282;-54
2022/05/19 00:11:47;;;;;;;;;;;;;;;;;;1045900;28;4214;-54
2022/05/19 00:12:19;;;;;;;;;;;;;;;;;;1043469;28;3455;-58
2022/05/19 00:12:49;;;;;;;;;;;;;;;;;;1044376;28;4046;-54
2022/05/19 00:13:19;;;;;;;;;;;;;;;;;;1039349;28;3285;-56
2022/05/19 00:13:50;;;;;;;;;;;;;;;;;;1034751;28;4052;-54
2022/05/19 00:14:20;;;;;;;;;;;;;;;;;;1035380;28;3157;-55
2022/05/19 00:14:50;;;;;;;;;;;;;;;;;;1033759;28;4067;-53
2022/05/19 00:15:21;;;;;;;;;;;;;;;;;;1039035;28;3789;-52
2022/05/19 00:15:51;;;;;;;;;;;;;;;;;;1042791;28;3976;-54
2022/05/19 00:16:22;;;;;;;;;;;;;;;;;;1044811;28;4132;-54
2022/05/19 00:16:56;;;;;;;;;;;;;;;;;;1044074;28;3877;-55
2022/05/19 00:17:26;;;;;;;;;;;;;;;;;;1043148;28;4288;-58
2022/05/19 00:17:56;;;;;;;;;;;;;;;;;;1045414;28;3891;-56
2022/05/19 00:18:27;;;;;;;;;;;;;;;;;;1042315;28;3379;-55
2022/05/19 00:18:57;;;;;;;;;;;;;;;;;;1044867;28;3868;-54
2022/05/19 00:19:27;;;;;;;;;;;;;;;;;;1044749;28;4127;-56
2022/05/19 00:19:58;;;;;;;;;;;;;;;;;;1043214;28;3892;-55
2022/05/19 00:20:28;;;;;;;;;;;;;;;;;;1042830;28;3470;-56
2022/05/19 00:20:58;;;;;;;;;;;;;;;;;;1044511;28;4003;-55
2022/05/19 00:21:28;;;;;;;;;;;;;;;;;;1044399;28;3900;-56
2022/05/19 00:21:59;;;;;;;;;;;;;;;;;;1040975;28;3945;-56
2022/05/19 00:22:29;;;;;;;;;;;;;;;;;;1044220;28;2883;-54
2022/05/19 00:22:59;;;;;;;;;;;;;;;;;;1036448;28;4056;-56
2022/05/19 00:23:29;;;;;;;;;;;;;;;;;;1039805;28;3760;-55
2022/05/19 00:24:06;;;;;;;;;;;;;;;;;;1032717;28;4961;-58
2022/05/19 00:24:37;;;;;;;;;;;;;;;;;;1035040;28;4260;-55
2022/05/19 00:25:07;;;;;;;;;;;;;;;;;;1038388;28;4374;-54
2022/05/19 00:25:38;;;;;;;;;;;;;;;;;;1037841;28;4107;-55
2022/05/19 00:26:08;;;;;;;;;;;;;;;;;;1042130;28;4121;-56
2022/05/19 00:26:38;;;;;;;;;;;;;;;;;;1041544;28;3964;-55
2022/05/19 00:27:08;;;;;;;;;;;;;;;;;;1042964;28;4135;-55
2022/05/19 00:27:39;;;;;;;;;;;;;;;;;;1044241;28;4067;-55
2022/05/19 00:28:09;;;;;;;;;;;;;;;;;;1040162;28;3143;-54
2022/05/19 00:28:39;;;;;;;;;;;;;;;;;;1039617;28;3898;-57
2022/05/19 00:29:10;;;;;;;;;;;;;;;;;;1041048;28;3260;-56
2022/05/19 00:29:40;;;;;;;;;;;;;;;;;;1038413;28;3990;-55
2022/05/19 00:30:11;;;;;;;;;;;;;;;;;;1042666;28;3406;-53
2022/05/19 00:30:42;;;;;;;;;;;;;;;;;;1043262;28;3896;-55
2022/05/19 00:31:12;;;;;;;;;;;;;;;;;;1042896;28;3481;-56
2022/05/19 00:31:42;;;;;;;;;;;;;;;;;;1043549;28;4062;-55
2022/05/19 00:32:13;;;;;;;;;;;;;;;;;;1043673;28;3872;-54
2022/05/19 00:32:43;;;;;;;;;;;;;;;;;;1044221;28;4856;-55
2022/05/19 00:33:13;;;;;;;;;;;;;;;;;;1044641;28;5286;-56
2022/05/19 00:33:50;;;;;;;;;;;;;;;;;;1042525;28;4159;-54
2022/05/19 00:34:27;;;;;;;;;;;;;;;;;;1042886;28;3312;-56
2022/05/19 00:35:04;;;;;;;;;;;;;;;;;;1045820;28;3848;-56
2022/05/19 00:35:36;;;;;;;;;;;;;;;;;;1044606;28;3925;-54
2022/05/19 00:36:11;;;;;;;;;;;;;;;;;;1042997;28;3798;-54
2022/05/19 00:36:41;;;;;;;;;;;;;;;;;;1042498;28;3925;-57
2022/05/19 00:37:12;;;;;;;;;;;;;;;;;;1043473;28;3518;-56
2022/05/19 00:37:42;;;;;;;;;;;;;;;;;;1044658;28;4049;-54
2022/05/19 00:38:12;;;;;;;;;;;;;;;;;;1044967;28;3376;-55
2022/05/19 00:38:43;;;;;;;;;;;;;;;;;;1044371;28;4145;-51
2022/05/19 00:39:13;;;;;;;;;;;;;;;;;;1041007;28;3836;-58
2022/05/19 00:39:44;;;;;;;;;;;;;;;;;;1043069;28;4045;-56
2022/05/19 00:40:16;;;;;;;;;;;;;;;;;;1043744;28;3415;-57
2022/05/19 00:40:51;;;;;;;;;;;;;;;;;;1044434;28;4037;-57
2022/05/19 00:41:21;;;;;;;;;;;;;;;;;;1043401;28;3305;-57
2022/05/19 00:42:43;;;;;;;;;;;;;;;;;;1043863;28;3891;-51
2022/05/19 00:42:45;;;;;;;;;;;;;;;;;;1042552;28;4008;-55
2022/05/19 00:43:15;;;;;;;;;;;;;;;;;;1040831;28;3730;-54
2022/05/19 00:43:46;;;;;;;;;;;;;;;;;;1040869;28;4345;-55
2022/05/19 00:44:17;;;;;;;;;;;;;;;;;;1042791;28;4083;-54
2022/05/19 00:44:47;;;;;;;;;;;;;;;;;;1043848;28;3978;-57
2022/05/19 00:45:19;;;;;;;;;;;;;;;;;;1041989;28;4214;-58
2022/05/19 00:45:51;;;;;;;;;;;;;;;;;;1043179;28;4504;-53
2022/05/19 00:46:24;;;;;;;;;;;;;;;;;;1037287;28;6852;-55
2022/05/19 00:46:56;;;;;;;;;;;;;;;;;;1039040;28;4111;-56
2022/05/19 00:47:31;;;;;;;;;;;;;;;;;;1040439;28;3473;-55
2022/05/19 00:48:22;;;;;;;;;;;;;;;;;;1043031;28;3862;-54
2022/05/19 00:48:54;;;;;;;;;;;;;;;;;;1043577;28;4120;-54
2022/05/19 00:49:24;;;;;;;;;;;;;;;;;;1044927;28;3581;-52
2022/05/19 00:49:54;;;;;;;;;;;;;;;;;;1046015;28;3902;-55
2022/05/19 00:50:31;;;;;;;;;;;;;;;;;;1045091;28;3625;-54
2022/05/19 00:51:06;;;;;;;;;;;;;;;;;;1043783;28;3820;-52
2022/05/19 00:51:44;;;;;;;;;;;;;;;;;;1042630;28;6223;-55
2022/05/19 00:52:20;;;;;;;;;;;;;;;;;;1043112;28;4042;-53
2022/05/19 00:52:52;;;;;;;;;;;;;;;;;;1042664;28;4073;-54
2022/05/19 00:53:28;;;;;;;;;;;;;;;;;;1043240;28;4119;-57
2022/05/19 00:53:58;;;;;;;;;;;;;;;;;;1042729;28;5037;-56
2022/05/19 00:54:32;;;;;;;;;;;;;;;;;;1042742;28;3989;-56
2022/05/19 00:55:17;;;;;;;;;;;;;;;;;;1044308;28;4035;-54
2022/05/19 00:55:49;;;;;;;;;;;;;;;;;;1043814;28;4103;-55
2022/05/19 00:56:31;;;;;;;;;;;;;;;;;;1043395;28;4092;-56
2022/05/19 00:57:06;;;;;;;;;;;;;;;;;;1043279;28;3902;-55
2022/05/19 00:57:39;;;;;;;;;;;;;;;;;;1043330;28;6305;-55
2022/05/19 00:58:16;;;;;;;;;;;;;;;;;;1045971;28;4086;-56
2022/05/19 00:58:48;;;;;;;;;;;;;;;;;;1044048;28;3906;-55
2022/05/19 00:59:28;;;;;;;;;;;;;;;;;;1042731;28;4190;-53
2022/05/19 01:00:01;;;;;;;;;;;;;;;;;;1046735;28;4024;-56
2022/05/19 01:00:32;;;;;;;;;;;;;;;;;;1042217;28;4041;-57
2022/05/19 01:01:03;;;;;;;;;;;;;;;;;;1044346;28;3786;-55
2022/05/19 01:01:35;;;;;;;;;;;;;;;;;;1042457;28;3920;-55
2022/05/19 01:02:07;;;;;;;;;;;;;;;;;;1044023;28;4009;-57
2022/05/19 01:02:39;;;;;;;;;;;;;;;;;;1041502;28;4079;-54
2022/05/19 01:03:10;;;;;;;;;;;;;;;;;;1044793;28;3929;-56
2022/05/19 01:03:43;;;;;;;;;;;;;;;;;;1044096;28;4108;-56
2022/05/19 01:04:16;;;;;;;;;;;;;;;;;;1044793;28;3760;-54
2022/05/19 01:04:51;;;;;;;;;;;;;;;;;;1043318;28;4081;-54
2022/05/19 01:05:31;;;;;;;;;;;;;;;;;;1044984;28;3899;-55
2022/05/19 01:06:06;;;;;;;;;;;;;;;;;;1042547;28;3883;-52
2022/05/19 01:06:38;;;;;;;;;;;;;;;;;;1044399;28;4520;-52
2022/05/19 01:07:10;;;;;;;;;;;;;;;;;;1044519;28;4353;-54
2022/05/19 01:07:43;;;;;;;;;;;;;;;;;;1039106;28;4017;-52
2022/05/19 01:08:16;;;;;;;;;;;;;;;;;;1038117;28;4107;-54
2022/05/19 01:08:49;;;;;;;;;;;;;;;;;;1039825;28;3999;-53
2022/05/19 01:09:19;;;;;;;;;;;;;;;;;;1040832;28;3066;-55
2022/05/19 01:09:52;;;;;;;;;;;;;;;;;;1043650;28;4255;-57
2022/05/19 01:10:23;;;;;;;;;;;;;;;;;;1045464;28;3832;-56
2022/05/19 01:10:53;;;;;;;;;;;;;;;;;;1038436;28;4088;-52
2022/05/19 01:11:24;;;;;;;;;;;;;;;;;;1038468;28;3710;-55
2022/05/19 01:11:56;;;;;;;;;;;;;;;;;;1039114;28;4073;-55
2022/05/19 01:12:28;;;;;;;;;;;;;;;;;;1039193;28;4215;-55
2022/05/19 01:12:58;;;;;;;;;;;;;;;;;;1043559;28;3932;-55
2022/05/19 01:13:31;;;;;;;;;;;;;;;;;;1045057;28;3361;-57
2022/05/19 01:14:01;;;;;;;;;;;;;;;;;;1036281;28;4124;-54
2022/05/19 01:14:32;;;;;;;;;;;;;;;;;;1037608;28;4112;-54
2022/05/19 01:15:03;;;;;;;;;;;;;;;;;;1039618;28;1952;-56
2022/05/19 01:15:34;;;;;;;;;;;;;;;;;;1037532;28;6449;-57
2022/05/19 01:16:06;;;;;;;;;;;;;;;;;;1042997;28;3592;-56
2022/05/19 01:16:37;;;;;;;;;;;;;;;;;;1044487;28;3829;-53
2022/05/19 01:17:07;;;;;;;;;;;;;;;;;;1046461;28;1932;-52
2022/05/19 01:17:37;;;;;;;;;;;;;;;;;;1043461;28;3937;-55
2022/05/19 01:18:08;;;;;;;;;;;;;;;;;;1043318;28;4232;-53
2022/05/19 01:18:39;;;;;;;;;;;;;;;;;;1043401;28;3929;-56
2022/05/19 01:19:15;;;;;;;;;;;;;;;;;;1043588;28;3430;-54
2022/05/19 01:19:46;;;;;;;;;;;;;;;;;;1043121;28;4434;-55
2022/05/19 01:20:19;;;;;;;;;;;;;;;;;;1041542;28;3787;-58
2022/05/19 01:20:49;;;;;;;;;;;;;;;;;;1043564;28;4277;-55
2022/05/19 01:21:20;;;;;;;;;;;;;;;;;;1043855;28;4050;-56
2022/05/19 01:21:52;;;;;;;;;;;;;;;;;;1038970;28;4100;-53
2022/05/19 01:22:57;;;;;;;;;;;;;;;;;;1040613;28;3859;-56
2022/05/19 01:23:33;;;;;;;;;;;;;;;;;;1024523;28;3937;-53
2022/05/19 01:24:06;;;;;;;;;;;;;;;;;;1026413;28;4897;-57
2022/05/19 01:24:50;;;;;;;;;;;;;;;;;;1024144;28;4271;-57
2022/05/19 01:25:29;;;;;;;;;;;;;;;;;;1026604;28;3918;-54
2022/05/19 01:26:00;;;;;;;;;;;;;;;;;;1029847;28;4176;-54
2022/05/19 01:26:41;;;;;;;;;;;;;;;;;;1043257;28;3765;-55
2022/05/19 01:27:11;;;;;;;;;;;;;;;;;;1043845;28;3941;-51
2022/05/19 01:27:41;;;;;;;;;;;;;;;;;;1043388;28;4016;-56
2022/05/19 01:28:12;;;;;;;;;;;;;;;;;;1044460;28;4003;-56
2022/05/19 01:28:43;;;;;;;;;;;;;;;;;;1044646;28;4195;-52
2022/05/19 01:29:15;;;;;;;;;;;;;;;;;;1043492;28;3430;-56
2022/05/19 01:29:46;;;;;;;;;;;;;;;;;;1044173;28;4076;-55
2022/05/19 01:30:16;;;;;;;;;;;;;;;;;;1043069;28;3703;-53
2022/05/19 01:30:46;;;;;;;;;;;;;;;;;;1042968;28;4263;-58
2022/05/19 01:31:37;;;;;;;;;;;;;;;;;;1045312;28;4070;-56
2022/05/19 01:32:21;;;;;;;;;;;;;;;;;;1044612;28;4009;-56
2022/05/19 01:32:57;;;;;;;;;;;;;;;;;;1037442;28;3968;-54
2022/05/19 01:33:34;;;;;;;;;;;;;;;;;;1037565;28;4547;-53
2022/05/19 01:34:12;;;;;;;;;;;;;;;;;;1038741;28;3998;-55
2022/05/19 01:34:48;;;;;;;;;;;;;;;;;;1040109;28;3984;-56
2022/05/19 01:35:18;;;;;;;;;;;;;;;;;;1040287;28;3872;-55
2022/05/19 01:35:49;;;;;;;;;;;;;;;;;;1040540;28;3911;-54
2022/05/19 01:36:19;;;;;;;;;;;;;;;;;;1038696;28;3321;-53
2022/05/19 01:36:49;;;;;;;;;;;;;;;;;;1040403;28;3897;-57
2022/05/19 01:37:20;;;;;;;;;;;;;;;;;;1039239;28;4020;-56
2022/05/19 01:37:50;;;;;;;;;;;;;;;;;;1038364;28;3904;-54
2022/05/19 01:38:23;;;;;;;;;;;;;;;;;;1039932;28;4401;-55
2022/05/19 01:39:07;;;;;;;;;;;;;;;;;;1039760;28;3884;-54
2022/05/19 01:39:37;;;;;;;;;;;;;;;;;;1042458;28;3942;-55
2022/05/19 01:40:11;;;;;;;;;;;;;;;;;;1045230;28;3719;-53
2022/05/19 01:40:50;;;;;;;;;;;;;;;;;;1043002;28;3982;-55
2022/05/19 01:41:23;;;;;;;;;;;;;;;;;;1042909;28;3901;-55
2022/05/19 01:42:05;;;;;;;;;;;;;;;;;;1038875;28;3999;-55
2022/05/19 01:42:41;;;;;;;;;;;;;;;;;;1039780;28;3971;-56
2022/05/19 01:43:30;;;;;;;;;;;;;;;;;;1039023;28;3991;-54
2022/05/19 01:44:16;;;;;;;;;;;;;;;;;;1038892;28;3995;-53
2022/05/19 01:44:50;;;;;;;;;;;;;;;;;;1040011;28;4072;-57
2022/05/19 01:45:36;;;;;;;;;;;;;;;;;;1037346;28;3798;-56
2022/05/19 01:46:13;;;;;;;;;;;;;;;;;;1039095;28;3945;-55
2022/05/19 01:46:46;;;;;;;;;;;;;;;;;;1038859;28;4091;-55
2022/05/19 01:47:36;;;;;;;;;;;;;;;;;;1040609;28;4332;-54
2022/05/19 01:48:20;;;;;;;;;;;;;;;;;;1036824;28;3856;-55
2022/05/19 01:48:56;;;;;;;;;;;;;;;;;;1039580;28;3973;-57
2022/05/19 01:49:44;;;;;;;;;;;;;;;;;;1039769;28;3880;-57
2022/05/19 01:50:17;;;;;;;;;;;;;;;;;;1038467;28;3715;-55
2022/05/19 01:50:52;;;;;;;;;;;;;;;;;;1039503;28;3993;-53
2022/05/19 01:51:38;;;;;;;;;;;;;;;;;;1039617;28;3885;-57
2022/05/19 01:52:16;;;;;;;;;;;;;;;;;;1040285;28;3891;-56
2022/05/19 01:52:52;;;;;;;;;;;;;;;;;;1040408;28;4135;-52
2022/05/19 01:53:22;;;;;;;;;;;;;;;;;;1042400;28;3201;-55
2022/05/19 01:53:55;;;;;;;;;;;;;;;;;;1038075;28;4060;-56
2022/05/19 01:54:25;;;;;;;;;;;;;;;;;;1038760;28;3619;-54
2022/05/19 01:55:25;;;;;;;;;;;;;;;;;;1040375;28;4047;-57
2022/05/19 01:56:14;;;;;;;;;;;;;;;;;;1027653;28;3890;-55
2022/05/19 01:57:03;;;;;;;;;;;;;;;;;;1039689;28;3968;-56
2022/05/19 01:57:48;;;;;;;;;;;;;;;;;;1038714;28;4081;-56
2022/05/19 01:58:30;;;;;;;;;;;;;;;;;;1037946;28;4126;-55
2022/05/19 01:59:16;;;;;;;;;;;;;;;;;;1039514;28;3841;-56
2022/05/19 01:59:55;;;;;;;;;;;;;;;;;;1039634;28;4945;-56
2022/05/19 02:00:27;;;;;;;;;;;;;;;;;;1038099;28;4363;-55
2022/05/19 02:00:59;;;;;;;;;;;;;;;;;;1040085;28;4070;-55
2022/05/19 02:01:29;;;;;;;;;;;;;;;;;;1039820;28;4094;-54
2022/05/19 02:02:03;;;;;;;;;;;;;;;;;;1037787;28;3833;-56
2022/05/19 02:02:45;;;;;;;;;;;;;;;;;;1038125;28;3932;-56
2022/05/19 02:03:22;;;;;;;;;;;;;;;;;;1038689;28;3336;-57
2022/05/19 02:04:14;;;;;;;;;;;;;;;;;;1038912;28;4016;-57
2022/05/19 02:04:57;;;;;;;;;;;;;;;;;;1040284;28;4065;-54
2022/05/19 02:05:31;;;;;;;;;;;;;;;;;;1039381;28;3665;-56
2022/05/19 02:06:16;;;;;;;;;;;;;;;;;;1037261;28;3856;-53
2022/05/19 02:06:48;;;;;;;;;;;;;;;;;;1040854;28;3880;-54
2022/05/19 02:07:19;;;;;;;;;;;;;;;;;;1039218;28;4287;-53
2022/05/19 02:07:51;;;;;;;;;;;;;;;;;;1037198;28;3994;-55
2022/05/19 02:08:30;;;;;;;;;;;;;;;;;;1038865;28;3877;-56
2022/05/19 02:09:02;;;;;;;;;;;;;;;;;;1040051;28;4072;-57
2022/05/19 02:09:36;;;;;;;;;;;;;;;;;;1038640;28;4057;-52
2022/05/19 02:10:11;;;;;;;;;;;;;;;;;;1039616;28;3783;-56
2022/05/19 02:10:44;;;;;;;;;;;;;;;;;;1040389;28;6023;-54
2022/05/19 02:11:20;;;;;;;;;;;;;;;;;;1042816;28;3681;-53
2022/05/19 02:11:54;;;;;;;;;;;;;;;;;;1042929;28;3929;-57
2022/05/19 02:12:25;;;;;;;;;;;;;;;;;;1042783;28;4666;-58
2022/05/19 02:12:57;;;;;;;;;;;;;;;;;;1040786;28;4969;-55
2022/05/19 02:13:29;;;;;;;;;;;;;;;;;;1038953;28;3470;-55
2022/05/19 02:14:02;;;;;;;;;;;;;;;;;;1040148;28;3903;-57
2022/05/19 02:14:35;;;;;;;;;;;;;;;;;;1038835;28;4947;-56
2022/05/19 02:15:08;;;;;;;;;;;;;;;;;;1038723;28;3317;-56
2022/05/19 02:15:40;;;;;;;;;;;;;;;;;;1037332;28;5047;-57
2022/05/19 02:16:13;;;;;;;;;;;;;;;;;;1040399;28;3223;-54
2022/05/19 02:16:44;;;;;;;;;;;;;;;;;;1039940;28;4064;-56
2022/05/19 02:17:16;;;;;;;;;;;;;;;;;;1038993;28;3774;-57
2022/05/19 02:17:46;;;;;;;;;;;;;;;;;;1039024;28;3910;-53
2022/05/19 02:18:18;;;;;;;;;;;;;;;;;;1040493;28;3844;-54
2022/05/19 02:18:49;;;;;;;;;;;;;;;;;;1039723;28;3896;-54
2022/05/19 02:19:24;;;;;;;;;;;;;;;;;;1040031;28;4516;-51
2022/05/19 02:19:56;;;;;;;;;;;;;;;;;;1038683;28;4034;-58
2022/05/19 02:20:28;;;;;;;;;;;;;;;;;;1040094;28;4127;-57
2022/05/19 02:21:00;;;;;;;;;;;;;;;;;;1041779;28;3943;-54
2022/05/19 02:21:30;;;;;;;;;;;;;;;;;;1042163;28;3794;-53
2022/05/19 02:22:01;;;;;;;;;;;;;;;;;;1043378;28;4074;-54
2022/05/19 02:22:33;;;;;;;;;;;;;;;;;;1043483;28;4077;-54
2022/05/19 02:23:19;;;;;;;;;;;;;;;;;;1038728;28;3820;-54
2022/05/19 02:23:56;;;;;;;;;;;;;;;;;;1038725;28;4065;-55
2022/05/19 02:24:35;;;;;;;;;;;;;;;;;;1039378;28;4077;-55
2022/05/19 02:25:10;;;;;;;;;;;;;;;;;;1040395;28;3700;-57
2022/05/19 02:25:41;;;;;;;;;;;;;;;;;;1039966;28;4031;-54
2022/05/19 02:26:11;;;;;;;;;;;;;;;;;;1040230;28;3837;-56
2022/05/19 02:26:42;;;;;;;;;;;;;;;;;;1040015;28;4060;-56
2022/05/19 02:27:31;;;;;;;;;;;;;;;;;;1038715;28;3671;-53
2022/05/19 02:28:04;;;;;;;;;;;;;;;;;;1039636;28;3922;-53
2022/05/19 02:28:41;;;;;;;;;;;;;;;;;;1038180;28;3911;-53
2022/05/19 02:29:13;;;;;;;;;;;;;;;;;;1040594;28;3928;-56
2022/05/19 02:29:44;;;;;;;;;;;;;;;;;;1038052;28;4358;-56
2022/05/19 02:30:17;;;;;;;;;;;;;;;;;;1039481;28;4326;-55
2022/05/19 02:30:47;;;;;;;;;;;;;;;;;;1038798;28;3903;-52
2022/05/19 02:31:17;;;;;;;;;;;;;;;;;;1039761;28;3845;-52
2022/05/19 02:31:48;;;;;;;;;;;;;;;;;;1038133;28;4154;-53
2022/05/19 02:32:19;;;;;;;;;;;;;;;;;;1039304;28;3892;-56
2022/05/19 02:32:49;;;;;;;;;;;;;;;;;;1038913;28;4028;-56
2022/05/19 02:33:21;;;;;;;;;;;;;;;;;;1038649;28;3503;-56
2022/05/19 02:33:58;;;;;;;;;;;;;;;;;;1040288;28;4116;-58
2022/05/19 02:34:35;;;;;;;;;;;;;;;;;;1043935;28;3695;-57
2022/05/19 02:35:06;;;;;;;;;;;;;;;;;;1044312;28;3923;-56
2022/05/19 02:35:36;;;;;;;;;;;;;;;;;;1042370;28;4055;-57
2022/05/19 02:36:07;;;;;;;;;;;;;;;;;;1044445;28;3983;-56
2022/05/19 02:36:38;;;;;;;;;;;;;;;;;;1040410;28;5146;-55
2022/05/19 02:37:08;;;;;;;;;;;;;;;;;;1043580;28;3960;-55
2022/05/19 02:37:38;;;;;;;;;;;;;;;;;;1043108;28;3868;-56
2022/05/19 02:38:09;;;;;;;;;;;;;;;;;;1043668;28;3954;-55
2022/05/19 02:38:39;;;;;;;;;;;;;;;;;;1044592;28;4177;-56
2022/05/19 02:39:10;;;;;;;;;;;;;;;;;;1043930;28;3692;-53
2022/05/19 02:39:40;;;;;;;;;;;;;;;;;;1043292;28;4198;-54
2022/05/19 02:40:12;;;;;;;;;;;;;;;;;;1042677;28;4840;-58
2022/05/19 02:40:42;;;;;;;;;;;;;;;;;;1042564;28;4018;-57
2022/05/19 02:41:13;;;;;;;;;;;;;;;;;;1043626;28;3410;-57
2022/05/19 02:41:43;;;;;;;;;;;;;;;;;;1043285;28;3888;-56
2022/05/19 02:42:13;;;;;;;;;;;;;;;;;;1037590;28;4186;-57
2022/05/19 02:42:44;;;;;;;;;;;;;;;;;;1032267;28;4314;-55
2022/05/19 02:43:14;;;;;;;;;;;;;;;;;;1035292;28;3892;-53
2022/05/19 02:43:51;;;;;;;;;;;;;;;;;;1034775;28;3919;-53
2022/05/19 02:44:22;;;;;;;;;;;;;;;;;;1038856;28;3827;-55
2022/05/19 02:44:52;;;;;;;;;;;;;;;;;;1042481;28;4016;-55
2022/05/19 02:45:23;;;;;;;;;;;;;;;;;;1042426;28;3945;-55
2022/05/19 02:45:54;;;;;;;;;;;;;;;;;;1041063;28;4388;-54
2022/05/19 02:46:24;;;;;;;;;;;;;;;;;;1041829;28;3872;-58
2022/05/19 02:46:54;;;;;;;;;;;;;;;;;;1043492;28;3823;-53
2022/05/19 02:47:24;;;;;;;;;;;;;;;;;;1040409;28;4158;-56
2022/05/19 02:47:55;;;;;;;;;;;;;;;;;;1038072;28;3997;-57
2022/05/19 02:48:25;;;;;;;;;;;;;;;;;;1040077;28;3944;-53
2022/05/19 02:48:58;;;;;;;;;;;;;;;;;;1040868;28;3931;-54
2022/05/19 02:49:28;;;;;;;;;;;;;;;;;;1043379;28;3702;-56
2022/05/19 02:49:58;;;;;;;;;;;;;;;;;;1043349;28;3919;-56
2022/05/19 02:50:29;;;;;;;;;;;;;;;;;;1041729;28;4235;-55
2022/05/19 02:51:00;;;;;;;;;;;;;;;;;;1043234;28;4400;-56
2022/05/19 02:51:30;;;;;;;;;;;;;;;;;;1044419;28;3887;-54
2022/05/19 02:52:00;;;;;;;;;;;;;;;;;;1044853;28;3743;-55
2022/05/19 02:52:30;;;;;;;;;;;;;;;;;;1041840;28;3880;-52
2022/05/19 02:53:01;;;;;;;;;;;;;;;;;;1044172;28;4176;-56
2022/05/19 02:53:31;;;;;;;;;;;;;;;;;;1037138;28;4054;-55
2022/05/19 02:54:01;;;;;;;;;;;;;;;;;;1039104;28;3568;-55
2022/05/19 02:54:32;;;;;;;;;;;;;;;;;;1039128;28;3926;-56
2022/05/19 02:55:03;;;;;;;;;;;;;;;;;;1039315;28;3755;-56
2022/05/19 02:55:33;;;;;;;;;;;;;;;;;;1043914;28;4240;-56
2022/05/19 02:56:03;;;;;;;;;;;;;;;;;;1043540;28;3901;-54
2022/05/19 02:56:33;;;;;;;;;;;;;;;;;;1041498;28;4166;-54
2022/05/19 02:57:04;;;;;;;;;;;;;;;;;;1043603;28;5716;-56
2022/05/19 02:57:34;;;;;;;;;;;;;;;;;;1043495;28;4190;-55
2022/05/19 02:58:05;;;;;;;;;;;;;;;;;;1044411;28;3892;-54
2022/05/19 02:58:35;;;;;;;;;;;;;;;;;;1037541;28;4040;-57
2022/05/19 02:59:05;;;;;;;;;;;;;;;;;;1040004;28;3894;-57
2022/05/19 02:59:35;;;;;;;;;;;;;;;;;;1038106;28;4077;-54
2022/05/19 03:00:08;;;;;;;;;;;;;;;;;;1038306;28;3839;-55
2022/05/19 03:00:40;;;;;;;;;;;;;;;;;;1043436;28;4169;-53
2022/05/19 03:01:10;;;;;;;;;;;;;;;;;;1044666;28;4288;-56
2022/05/19 03:01:40;;;;;;;;;;;;;;;;;;1044581;28;5021;-54
2022/05/19 03:02:11;;;;;;;;;;;;;;;;;;1044147;28;3762;-58
2022/05/19 03:02:41;;;;;;;;;;;;;;;;;;1043817;28;4068;-56
2022/05/19 03:03:12;;;;;;;;;;;;;;;;;;1043397;28;3870;-57
2022/05/19 03:03:42;;;;;;;;;;;;;;;;;;1042964;28;3872;-57
2022/05/19 03:04:12;;;;;;;;;;;;;;;;;;1043006;28;3848;-55
2022/05/19 03:04:42;;;;;;;;;;;;;;;;;;1043735;28;3921;-54
2022/05/19 03:05:14;;;;;;;;;;;;;;;;;;1044530;28;3627;-56
2022/05/19 03:05:44;;;;;;;;;;;;;;;;;;1041622;28;4031;-57
2022/05/19 03:06:15;;;;;;;;;;;;;;;;;;1044270;28;3948;-56
2022/05/19 03:06:46;;;;;;;;;;;;;;;;;;1041582;28;4115;-54
2022/05/19 03:07:16;;;;;;;;;;;;;;;;;;1044434;28;3884;-56
2022/05/19 03:07:47;;;;;;;;;;;;;;;;;;1043408;28;4026;-55
2022/05/19 03:08:17;;;;;;;;;;;;;;;;;;1039052;28;3897;-56
2022/05/19 03:08:47;;;;;;;;;;;;;;;;;;1033988;28;3879;-54
2022/05/19 03:09:18;;;;;;;;;;;;;;;;;;1036662;28;4140;-56
2022/05/19 03:09:50;;;;;;;;;;;;;;;;;;1035128;28;3947;-54
2022/05/19 03:10:21;;;;;;;;;;;;;;;;;;1040373;28;3783;-56
2022/05/19 03:10:51;;;;;;;;;;;;;;;;;;1044127;28;3887;-57
2022/05/19 03:11:21;;;;;;;;;;;;;;;;;;1043458;28;4034;-55
2022/05/19 03:11:51;;;;;;;;;;;;;;;;;;1043186;28;4030;-56
2022/05/19 03:12:22;;;;;;;;;;;;;;;;;;1043788;28;3688;-56
2022/05/19 03:12:56;;;;;;;;;;;;;;;;;;1042577;28;4036;-53
2022/05/19 03:13:26;;;;;;;;;;;;;;;;;;1045566;28;3639;-55
2022/05/19 03:13:56;;;;;;;;;;;;;;;;;;1041892;28;4301;-54
2022/05/19 03:14:26;;;;;;;;;;;;;;;;;;1042763;28;3935;-54
2022/05/19 03:14:57;;;;;;;;;;;;;;;;;;1036950;28;4270;-56
2022/05/19 03:15:27;;;;;;;;;;;;;;;;;;1037355;28;3880;-58
2022/05/19 03:15:57;;;;;;;;;;;;;;;;;;1037787;28;4350;-55
2022/05/19 03:16:28;;;;;;;;;;;;;;;;;;1038062;28;3903;-54
2022/05/19 03:16:58;;;;;;;;;;;;;;;;;;1042082;28;4077;-55
2022/05/19 03:17:28;;;;;;;;;;;;;;;;;;1044106;28;3573;-53
2022/05/19 03:17:59;;;;;;;;;;;;;;;;;;1043630;28;3857;-55
2022/05/19 03:18:29;;;;;;;;;;;;;;;;;;1044659;28;3267;-55
2022/05/19 03:18:59;;;;;;;;;;;;;;;;;;1041309;28;5426;-55
2022/05/19 03:19:29;;;;;;;;;;;;;;;;;;1042789;28;4861;-56
2022/05/19 03:20:00;;;;;;;;;;;;;;;;;;1045284;28;4042;-55
2022/05/19 03:20:30;;;;;;;;;;;;;;;;;;1041844;28;3979;-57
2022/05/19 03:21:00;;;;;;;;;;;;;;;;;;1043248;28;4101;-56
2022/05/19 03:21:31;;;;;;;;;;;;;;;;;;1042160;28;4218;-55
2022/05/19 03:22:02;;;;;;;;;;;;;;;;;;1038693;28;3481;-57
2022/05/19 03:22:33;;;;;;;;;;;;;;;;;;1039603;28;3976;-58
2022/05/19 03:23:03;;;;;;;;;;;;;;;;;;1039204;28;3667;-54
2022/05/19 03:23:33;;;;;;;;;;;;;;;;;;1038589;28;4069;-56
2022/05/19 03:24:04;;;;;;;;;;;;;;;;;;1040509;28;3474;-54
2022/05/19 03:24:34;;;;;;;;;;;;;;;;;;1038400;28;3927;-57
2022/05/19 03:25:05;;;;;;;;;;;;;;;;;;1040009;28;4061;-55
2022/05/19 03:25:35;;;;;;;;;;;;;;;;;;1036257;28;4472;-54
2022/05/19 03:26:06;;;;;;;;;;;;;;;;;;1040333;28;3884;-56
2022/05/19 03:26:36;;;;;;;;;;;;;;;;;;1040261;28;4061;-54
2022/05/19 03:27:06;;;;;;;;;;;;;;;;;;1041489;28;3865;-53
2022/05/19 03:27:37;;;;;;;;;;;;;;;;;;1041816;28;4044;-55
2022/05/19 03:28:11;;;;;;;;;;;;;;;;;;1045085;28;4071;-53
2022/05/19 03:28:41;;;;;;;;;;;;;;;;;;1042877;28;3908;-57
2022/05/19 03:29:12;;;;;;;;;;;;;;;;;;1043867;28;3900;-56
2022/05/19 03:29:42;;;;;;;;;;;;;;;;;;1041065;28;4028;-56
2022/05/19 03:30:14;;;;;;;;;;;;;;;;;;1043585;28;4022;-52
2022/05/19 03:30:44;;;;;;;;;;;;;;;;;;1037753;28;3852;-54
2022/05/19 03:31:14;;;;;;;;;;;;;;;;;;1039328;28;4035;-57
2022/05/19 03:31:45;;;;;;;;;;;;;;;;;;1038244;28;4055;-54
2022/05/19 03:32:15;;;;;;;;;;;;;;;;;;1039766;28;3926;-51
2022/05/19 03:32:46;;;;;;;;;;;;;;;;;;1041682;28;4111;-55
2022/05/19 03:33:16;;;;;;;;;;;;;;;;;;1038280;28;3714;-56
2022/05/19 03:33:53;;;;;;;;;;;;;;;;;;1039139;28;3938;-55
2022/05/19 03:34:30;;;;;;;;;;;;;;;;;;1033245;28;4340;-55
2022/05/19 03:35:08;;;;;;;;;;;;;;;;;;1035370;28;3667;-56
2022/05/19 03:35:40;;;;;;;;;;;;;;;;;;1034041;28;3936;-57
2022/05/19 03:36:10;;;;;;;;;;;;;;;;;;1034283;28;3730;-55
2022/05/19 03:36:41;;;;;;;;;;;;;;;;;;1035994;28;3913;-57
2022/05/19 03:37:11;;;;;;;;;;;;;;;;;;1034569;28;3904;-55
2022/05/19 03:37:42;;;;;;;;;;;;;;;;;;1036304;28;3949;-56
2022/05/19 03:38:12;;;;;;;;;;;;;;;;;;1035581;28;3756;-56
2022/05/19 03:38:42;;;;;;;;;;;;;;;;;;1035944;28;4096;-54
2022/05/19 03:39:13;;;;;;;;;;;;;;;;;;1036804;28;3275;-57
2022/05/19 03:39:51;;;;;;;;;;;;;;;;;;1034564;28;3838;-56
2022/05/19 03:40:21;;;;;;;;;;;;;;;;;;1035068;28;3844;-52
2022/05/19 03:40:51;;;;;;;;;;;;;;;;;;1033547;28;4116;-54
2022/05/19 03:41:22;;;;;;;;;;;;;;;;;;1033911;28;4768;-53
2022/05/19 03:41:52;;;;;;;;;;;;;;;;;;1038326;28;4315;-57
2022/05/19 03:42:22;;;;;;;;;;;;;;;;;;1034741;28;3751;-54
2022/05/19 03:42:52;;;;;;;;;;;;;;;;;;1036536;28;3875;-52
2022/05/19 03:43:23;;;;;;;;;;;;;;;;;;1034735;28;3494;-56
2022/05/19 03:43:53;;;;;;;;;;;;;;;;;;1035453;28;3750;-55
2022/05/19 03:44:23;;;;;;;;;;;;;;;;;;1034806;28;3904;-57
2022/05/19 03:44:53;;;;;;;;;;;;;;;;;;1034058;28;6088;-54
2022/05/19 03:45:24;;;;;;;;;;;;;;;;;;1034588;28;3888;-57
2022/05/19 03:45:55;;;;;;;;;;;;;;;;;;1033072;28;3905;-53
2022/05/19 03:46:25;;;;;;;;;;;;;;;;;;1035967;28;3644;-56
2022/05/19 03:46:55;;;;;;;;;;;;;;;;;;1034770;28;5236;-57
2022/05/19 03:47:25;;;;;;;;;;;;;;;;;;1038657;28;4093;-54
2022/05/19 03:47:56;;;;;;;;;;;;;;;;;;1038563;28;4733;-55